Jefferson, Oregon
Current Conditions -  °F | °C
As of 1:56 PM on Monday 20 Oct 2014 (Local Time) from KSLE Reporting Station
Overcast Overcast  
Wind Chill: 61°   Ceiling: 6500
Heat Index: 61°   Visibility: 10mi
Dew Point: 56°   Wind: 13mph
Humidity: 83%   Direction: 160°SSE
Pressure: 29.79"   Gusts: NA
Location:  44.72°N, 123.01°W
Report Text: KSLE 202056Z 16011KT 10SM FEW033 BKN065 OVC095 16/13 A2979 RMK AO2 RAB24E53 SLP088 P0001 60001 T01610133 58001
Loading
Personal Weather Stations






























Interactive Weather Map
Tropical Storm Tracking
New forecast layout! Learn more

10-Day Weather Forecast

Advertisements
Track Severe Weather on mobile